Time;durP1;ratioP1;P1;durP2;ratioP2;P2;SDS_P1;SDS_P2;PMS_P1;PMS_P2;Temp;Humidity;BMP_temperature;BMP_pressure;BME280_temperature;BME280_humidity;BME280_pressure;Samples;Min_cycle;Max_cycle;Signal;HPM_P1;HPM_P2
2022/07/24 00:02:20;;;;;;;8.20;5.75;;;;;;;30.99;33.27;96973.59;4950453;28;20029;-26
2022/07/24 00:04:45;;;;;;;7.10;5.90;;;;;;;30.98;33.16;96967.47;4955392;28;20893;-31
2022/07/24 00:07:11;;;;;;;6.88;5.70;;;;;;;30.97;33.32;96973.69;4959533;28;20038;-27
2022/07/24 00:09:36;;;;;;;7.05;5.63;;;;;;;30.97;33.29;96971.06;4958041;28;20082;-30
2022/07/24 00:12:02;;;;;;;7.63;5.78;;;;;;;30.96;33.18;96968.50;4954900;28;20179;-30
2022/07/24 00:14:27;;;;;;;7.85;5.47;;;;;;;30.96;33.22;96979.09;4957212;28;20042;-26
2022/07/24 00:16:53;;;;;;;6.25;5.38;;;;;;;30.95;33.43;96977.41;4960115;28;20022;-27
2022/07/24 00:19:18;;;;;;;6.65;5.80;;;;;;;30.92;33.36;96973.19;4953291;28;21345;-28
2022/07/24 00:21:44;;;;;;;7.30;5.78;;;;;;;30.94;33.32;96975.72;4961617;28;20538;-29
2022/07/24 00:24:09;;;;;;;6.32;5.72;;;;;;;30.92;33.34;96973.19;4953623;28;20424;-25
2022/07/24 00:26:34;;;;;;;10.48;5.97;;;;;;;30.91;33.59;96971.50;4959414;28;20084;-30
2022/07/24 00:29:00;;;;;;;9.07;5.97;;;;;;;30.89;33.38;96968.09;4953342;28;20488;-27
2022/07/24 00:31:25;;;;;;;7.55;6.07;;;;;;;30.90;33.35;96972.47;4948929;28;20041;-25
2022/07/24 00:33:51;;;;;;;8.10;6.13;;;;;;;30.90;33.54;96972.47;4960663;28;20041;-28
2022/07/24 00:36:16;;;;;;;7.07;6.22;;;;;;;30.89;33.36;96973.41;4960621;28;20041;-29
2022/07/24 00:38:42;;;;;;;7.32;6.20;;;;;;;30.89;33.52;96970.75;4959382;28;20112;-27
2022/07/24 00:41:07;;;;;;;7.40;6.05;;;;;;;30.88;33.68;96961.13;4961380;28;20025;-28
2022/07/24 00:43:33;;;;;;;6.68;5.75;;;;;;;30.87;33.39;96964.75;4959706;28;21000;-29
2022/07/24 00:45:58;;;;;;;7.45;6.20;;;;;;;30.87;33.55;96962.09;4958555;28;20037;-32
2022/07/24 00:48:23;;;;;;;6.70;5.78;;;;;;;30.84;33.72;96971.09;4959591;28;20617;-30
2022/07/24 00:50:49;;;;;;;7.70;6.07;;;;;;;30.84;33.69;96964.94;4954064;28;20025;-28
2022/07/24 00:53:14;;;;;;;8.00;6.10;;;;;;;30.83;33.52;96961.47;4963020;28;20789;-30
2022/07/24 00:55:40;;;;;;;7.50;5.80;;;;;;;30.83;33.69;96969.41;4962145;28;20164;-28
2022/07/24 00:58:05;;;;;;;6.22;5.30;;;;;;;30.83;33.42;96960.63;4954088;28;20575;-27
2022/07/24 01:00:31;;;;;;;8.85;5.60;;;;;;;30.82;33.71;96966.88;4958147;28;20041;-26
2022/07/24 01:02:56;;;;;;;6.43;5.82;;;;;;;30.82;33.71;96961.59;4968562;28;20038;-29
2022/07/24 01:05:21;;;;;;;7.43;5.82;;;;;;;30.76;33.71;96953.13;4964273;28;20057;-27
2022/07/24 01:07:47;;;;;;;6.43;5.38;;;;;;;30.81;33.65;96959.91;4963043;28;20041;-29
2022/07/24 01:10:12;;;;;;;13.25;5.68;;;;;;;30.81;33.53;96954.63;4960285;28;20034;-28
2022/07/24 01:12:40;;;;;;;8.68;6.07;;;;;;;30.80;33.46;96948.47;4965402;28;20130;-29
2022/07/24 01:15:07;;;;;;;8.57;5.90;;;;;;;30.80;33.65;96953.75;4961713;28;20033;-28
2022/07/24 01:17:34;;;;;;;7.60;5.97;;;;;;;30.79;33.78;96948.56;4962575;28;20072;-25
2022/07/24 01:19:59;;;;;;;8.07;5.88;;;;;;;30.77;33.63;96938.94;4961155;28;20095;-27
2022/07/24 01:22:25;;;;;;;6.75;5.57;;;;;;;30.77;33.78;96944.25;4962117;28;20731;-24
2022/07/24 01:24:51;;;;;;;7.32;5.07;;;;;;;30.76;33.47;96945.22;4965738;28;20021;-28
2022/07/24 01:27:16;;;;;;;9.15;6.38;;;;;;;30.76;33.54;96944.34;4961435;28;20045;-29
2022/07/24 01:29:42;;;;;;;9.30;5.50;;;;;;;30.76;33.49;96942.56;4963073;28;20022;-30
2022/07/24 01:32:07;;;;;;;8.85;5.75;;;;;;;30.76;33.67;96947.84;4959909;28;22248;-29
2022/07/24 01:34:32;;;;;;;7.80;6.00;;;;;;;30.75;33.32;96954.06;4960713;28;20033;-30
2022/07/24 01:36:58;;;;;;;7.40;5.72;;;;;;;30.74;33.55;96955.03;4962382;28;20034;-31
2022/07/24 01:39:23;;;;;;;8.02;5.65;;;;;;;30.74;33.76;96954.22;4961818;28;20385;-31
2022/07/24 01:41:49;;;;;;;7.10;5.80;;;;;;;30.73;33.46;96958.63;4957810;28;20483;-25
2022/07/24 01:44:14;;;;;;;7.95;5.88;;;;;;;30.73;33.68;96958.63;4958147;28;20041;-30
2022/07/24 01:46:39;;;;;;;9.10;5.70;;;;;;;30.72;33.42;96951.66;4953340;28;20578;-28
2022/07/24 01:49:05;;;;;;;6.20;5.40;;;;;;;30.72;33.67;96950.81;4957539;28;20038;-27
2022/07/24 01:51:30;;;;;;;9.55;5.68;;;;;;;30.70;33.65;96948.25;4954045;28;20038;-28
2022/07/24 01:53:56;;;;;;;7.43;5.70;;;;;;;30.66;33.59;96949.41;4953230;28;20045;-30
2022/07/24 01:56:21;;;;;;;6.22;5.63;;;;;;;30.71;33.45;96957.03;4959647;28;20050;-31
2022/07/24 01:58:46;;;;;;;7.50;5.50;;;;;;;30.71;33.41;96959.69;4959483;28;20054;-26
2022/07/24 02:01:12;;;;;;;5.82;5.25;;;;;;;30.70;33.62;96950.88;4958224;28;20040;-30
2022/07/24 02:03:38;;;;;;;8.13;5.35;;;;;;;30.70;33.58;96955.34;4957435;28;20116;-26
2022/07/24 02:06:04;;;;;;;7.10;5.95;;;;;;;30.70;33.81;96947.41;4959537;28;20575;-26
2022/07/24 02:08:29;;;;;;;6.53;5.80;;;;;;;30.68;33.53;96952.81;4961285;28;20026;-32
2022/07/24 02:10:55;;;;;;;10.10;5.80;;;;;;;30.69;33.87;96962.44;4956227;28;20045;-27
2022/07/24 02:13:20;;;;;;;6.45;5.85;;;;;;;30.68;33.77;96950.16;4959938;28;20775;-30
2022/07/24 02:15:46;;;;;;;7.13;6.13;;;;;;;30.66;33.90;96945.94;4957079;28;20751;-30
2022/07/24 02:18:11;;;;;;;6.80;5.65;;;;;;;30.66;33.65;96945.94;4954920;28;20041;-29
2022/07/24 02:20:37;;;;;;;6.55;5.20;;;;;;;30.64;33.83;96946.03;4962311;28;20049;-26
2022/07/24 02:23:02;;;;;;;8.45;5.45;;;;;;;30.63;33.79;96949.66;4954807;28;20050;-30
2022/07/24 02:25:27;;;;;;;7.85;6.07;;;;;;;30.62;33.80;96955.88;4959096;28;20038;-28
2022/07/24 02:27:53;;;;;;;7.15;5.88;;;;;;;30.62;33.73;96945.28;4960029;28;20034;-27
2022/07/24 02:30:19;;;;;;;6.38;5.70;;;;;;;30.62;33.93;96947.94;4962233;28;20493;-32
2022/07/24 02:32:45;;;;;;;6.10;5.50;;;;;;;30.62;33.52;96953.22;4960648;28;20148;-32
2022/07/24 02:35:10;;;;;;;7.13;5.70;;;;;;;30.61;33.92;96955.03;4959733;28;22732;-29
2022/07/24 02:37:37;;;;;;;7.05;5.20;;;;;;;30.61;33.87;96948.91;4952995;28;20072;-29
2022/07/24 02:40:03;;;;;;;6.68;5.70;;;;;;;30.59;33.85;96950.81;4962540;28;20029;-30
2022/07/24 02:42:28;;;;;;;7.57;5.55;;;;;;;30.61;33.82;96951.53;4954780;28;20364;-32
2022/07/24 02:44:54;;;;;;;9.77;5.72;;;;;;;30.58;33.85;96944.66;4959316;28;20041;-34
2022/07/24 02:47:19;;;;;;;7.03;6.10;;;;;;;30.59;33.47;96943.72;4958189;28;20045;-26
2022/07/24 02:49:44;;;;;;;8.70;5.63;;;;;;;30.59;33.57;96950.81;4958334;28;21627;-30
2022/07/24 02:52:10;;;;;;;8.57;6.07;;;;;;;30.59;33.52;96948.16;4955250;28;20038;-28
2022/07/24 02:54:35;;;;;;;9.00;6.15;;;;;;;30.59;33.43;96956.94;4957426;28;20038;-27
2022/07/24 02:57:01;;;;;;;10.02;6.25;;;;;;;30.58;33.75;96954.38;4954125;28;20524;-26
2022/07/24 02:59:26;;;;;;;7.47;5.63;;;;;;;30.57;33.59;96947.41;4962016;28;20029;-25
2022/07/24 03:01:51;;;;;;;8.13;5.60;;;;;;;30.58;33.84;96952.59;4954952;28;20033;-28
2022/07/24 03:04:17;;;;;;;7.35;6.15;;;;;;;30.58;33.45;96949.09;4955431;28;20333;-27
2022/07/24 03:06:42;;;;;;;7.18;5.82;;;;;;;30.56;33.39;96953.66;4960110;28;20511;-29
2022/07/24 03:09:08;;;;;;;6.75;6.00;;;;;;;30.55;33.46;96950.16;4957754;28;20029;-31
2022/07/24 03:11:33;;;;;;;9.85;6.00;;;;;;;30.55;33.59;96949.34;4959949;28;20038;-26
2022/07/24 03:13:58;;;;;;;6.80;5.65;;;;;;;30.52;33.58;96948.59;4962773;28;20583;-29
2022/07/24 03:16:24;;;;;;;9.98;5.63;;;;;;;30.50;33.46;96942.56;4960069;28;20042;-28
2022/07/24 03:18:49;;;;;;;7.43;5.65;;;;;;;30.49;33.61;96951.47;4950649;28;20041;-27
2022/07/24 03:21:15;;;;;;;8.05;5.45;;;;;;;30.48;33.38;96946.28;4960878;28;20026;-31
2022/07/24 03:23:40;;;;;;;8.25;5.80;;;;;;;30.46;33.21;96946.38;4966318;28;20033;-28
2022/07/24 03:26:06;;;;;;;8.55;6.15;;;;;;;30.45;33.50;96955.28;4954994;28;20037;-29
2022/07/24 03:28:31;;;;;;;7.15;5.43;;;;;;;30.41;33.14;96951.16;4963396;28;20032;-29
2022/07/24 03:30:57;;;;;;;5.80;5.05;;;;;;;30.42;33.24;96960.78;4954994;28;20404;-25
2022/07/24 03:33:22;;;;;;;7.55;5.72;;;;;;;30.37;33.03;96947.03;4960269;28;20038;-31
2022/07/24 03:35:47;;;;;;;8.35;5.50;;;;;;;30.42;33.16;96954.63;4960170;28;20030;-26
2022/07/24 03:38:13;;;;;;;8.13;5.68;;;;;;;30.41;33.31;96953.81;4958027;28;20033;-32
2022/07/24 03:40:38;;;;;;;7.03;5.35;;;;;;;30.41;32.96;96958.22;4952202;28;20034;-29
2022/07/24 03:43:04;;;;;;;7.38;5.60;;;;;;;30.40;33.02;96957.38;4944250;28;20236;-30
2022/07/24 03:45:29;;;;;;;8.77;5.50;;;;;;;30.39;33.00;96953.03;4966939;28;20084;-27
2022/07/24 03:47:54;;;;;;;6.50;5.47;;;;;;;30.37;33.16;96953.16;4962277;28;20087;-29
2022/07/24 03:50:20;;;;;;;9.60;5.63;;;;;;;30.38;33.46;96962.78;4965064;28;20037;-28
2022/07/24 03:52:45;;;;;;;9.10;5.63;;;;;;;30.37;33.12;96960.25;4957776;28;20693;-29
2022/07/24 03:55:10;;;;;;;8.23;5.60;;;;;;;30.36;33.12;96955.94;4961895;28;20029;-30
2022/07/24 03:57:36;;;;;;;7.30;5.75;;;;;;;30.35;32.89;96959.50;4950972;28;20042;-26
2022/07/24 04:00:03;;;;;;;6.47;5.60;;;;;;;30.34;33.01;96963.97;4965002;28;20148;-34
2022/07/24 04:02:28;;;;;;;7.57;5.63;;;;;;;30.33;33.02;96956.13;4948691;28;20037;-26
2022/07/24 04:04:54;;;;;;;7.57;5.70;;;;;;;30.32;33.00;96959.72;4964214;28;20045;-33
2022/07/24 04:07:19;;;;;;;6.75;5.88;;;;;;;30.31;32.98;96968.59;4958592;28;20030;-30
2022/07/24 04:09:45;;;;;;;7.15;5.82;;;;;;;30.32;33.17;96965.84;4962116;28;20026;-29
2022/07/24 04:12:10;;;;;;;7.57;6.13;;;;;;;30.32;33.26;96965.03;4957365;28;20315;-31
2022/07/24 04:14:35;;;;;;;7.80;5.80;;;;;;;30.31;32.98;96969.44;4957402;28;21420;-29
2022/07/24 04:17:01;;;;;;;7.25;5.43;;;;;;;30.28;33.09;96971.47;4958512;28;20054;-27
2022/07/24 04:19:26;;;;;;;7.95;5.38;;;;;;;30.30;33.01;96977.47;4956787;28;20030;-29
2022/07/24 04:21:52;;;;;;;5.95;5.38;;;;;;;30.29;33.19;96981.09;4954970;28;20033;-30
2022/07/24 04:24:17;;;;;;;7.40;6.00;;;;;;;30.30;33.28;96988.06;4961111;28;20048;-30
2022/07/24 04:26:42;;;;;;;7.22;5.63;;;;;;;30.28;33.00;96979.41;4964781;28;20119;-30
2022/07/24 04:29:08;;;;;;;7.97;5.82;;;;;;;30.29;33.06;96981.94;4962142;28;20326;-30
2022/07/24 04:31:33;;;;;;;6.70;5.25;;;;;;;30.29;33.21;96983.72;4957649;28;20096;-34
2022/07/24 04:33:59;;;;;;;9.50;5.32;;;;;;;30.29;33.08;96981.09;4962846;28;20038;-26
2022/07/24 04:36:24;;;;;;;6.28;5.68;;;;;;;30.28;32.96;96982.88;4968213;28;20088;-27
2022/07/24 04:38:49;;;;;;;7.75;5.55;;;;;;;30.27;32.98;96975.03;4960066;28;20385;-33
2022/07/24 04:41:17;;;;;;;7.07;5.60;;;;;;;30.27;33.01;96977.69;4957692;28;20040;-32
2022/07/24 04:43:42;;;;;;;7.07;5.50;;;;;;;30.25;32.86;96980.47;4961812;28;20508;-31
2022/07/24 04:46:08;;;;;;;8.13;5.35;;;;;;;30.24;32.89;96982.25;4964341;28;20037;-31
2022/07/24 04:48:33;;;;;;;6.50;5.53;;;;;;;30.23;32.94;96983.19;4956006;28;20033;-32
2022/07/24 04:50:59;;;;;;;6.32;5.63;;;;;;;30.22;33.20;96981.53;4957792;28;20025;-28
2022/07/24 04:53:24;;;;;;;7.53;5.80;;;;;;;30.21;33.13;96979.81;4959596;28;20050;-31
2022/07/24 04:55:49;;;;;;;7.22;5.40;;;;;;;30.20;33.22;96980.75;4957615;28;20041;-30
2022/07/24 04:58:15;;;;;;;7.22;4.95;;;;;;;30.21;33.34;96979.81;4959971;28;20030;-28
2022/07/24 05:00:40;;;;;;;8.10;5.35;;;;;;;30.19;33.12;96984.38;4963349;28;20116;-32
2022/07/24 05:03:06;;;;;;;6.30;5.10;;;;;;;30.19;32.90;96987.00;4964039;28;20044;-28
2022/07/24 05:05:31;;;;;;;5.85;5.25;;;;;;;30.20;33.25;96985.19;4959036;28;20045;-27
2022/07/24 05:07:56;;;;;;;7.03;5.05;;;;;;;30.22;33.11;96996.53;4965093;28;20099;-32
2022/07/24 05:10:22;;;;;;;6.05;5.38;;;;;;;30.22;33.03;96991.22;4960238;28;20029;-30
2022/07/24 05:12:47;;;;;;;6.65;5.60;;;;;;;30.21;33.12;96995.66;4960789;28;21063;-29
2022/07/24 05:15:12;;;;;;;6.85;5.40;;;;;;;30.22;33.34;96992.09;4956888;28;20040;-30
2022/07/24 05:17:38;;;;;;;6.68;5.50;;;;;;;30.23;33.22;96992.91;4961552;28;20034;-31
2022/07/24 05:20:04;;;;;;;6.43;5.70;;;;;;;30.25;33.37;96998.97;4962342;28;20030;-26
2022/07/24 05:22:29;;;;;;;8.93;5.78;;;;;;;30.24;33.32;96991.97;4965194;28;20038;-33
2022/07/24 05:24:55;;;;;;;6.68;5.30;;;;;;;30.25;33.31;97002.44;4962681;28;20065;-32
2022/07/24 05:27:20;;;;;;;5.40;4.88;;;;;;;30.25;33.60;96997.16;4964283;28;20017;-34
2022/07/24 05:29:46;;;;;;;9.65;5.65;;;;;;;30.27;33.52;96985.63;4956354;28;20041;-27
2022/07/24 05:32:12;;;;;;;9.65;5.80;;;;;;;30.27;33.68;96993.53;4966940;28;20029;-31
2022/07/24 05:34:37;;;;;;;7.47;5.60;;;;;;;30.26;33.51;96990.06;4954163;28;20065;-32
2022/07/24 05:37:03;;;;;;;6.05;5.45;;;;;;;30.27;33.60;96982.97;4962821;28;21002;-31
2022/07/24 05:39:28;;;;;;;7.13;5.60;;;;;;;30.27;33.71;96985.63;4956182;28;20030;-31
2022/07/24 05:41:54;;;;;;;6.30;5.00;;;;;;;30.26;33.61;96982.16;4966794;28;20033;-31
2022/07/24 05:44:19;;;;;;;7.65;5.40;;;;;;;30.27;33.73;96982.97;4960982;28;20114;-30
2022/07/24 05:46:44;;;;;;;6.25;5.10;;;;;;;30.24;33.61;96984.88;4961597;28;20037;-32
2022/07/24 05:49:10;;;;;;;7.07;5.25;;;;;;;30.24;33.30;96990.19;4964363;28;20042;-31
2022/07/24 05:51:35;;;;;;;6.55;5.53;;;;;;;30.23;33.62;96985.84;4958963;28;20029;-30
2022/07/24 05:54:01;;;;;;;7.22;5.32;;;;;;;30.22;33.53;96981.53;4961320;28;20041;-33
2022/07/24 05:56:26;;;;;;;6.45;5.15;;;;;;;30.22;33.59;96986.81;4958527;28;20034;-28
2022/07/24 05:58:51;;;;;;;7.00;5.97;;;;;;;30.23;33.71;96993.78;4961263;28;20025;-31
2022/07/24 06:01:17;;;;;;;6.95;5.70;;;;;;;30.24;33.99;96984.88;4960681;28;20528;-26
2022/07/24 06:03:42;;;;;;;5.82;5.22;;;;;;;30.24;33.74;96990.19;4958520;28;20037;-32
2022/07/24 06:06:08;;;;;;;5.68;5.05;;;;;;;30.25;33.93;96986.56;4959527;28;20041;-28
2022/07/24 06:08:33;;;;;;;6.38;5.20;;;;;;;30.24;33.96;96979.59;4964557;28;20803;-36
2022/07/24 06:10:58;;;;;;;7.68;5.70;;;;;;;30.28;33.63;96984.69;4958754;28;20030;-27
2022/07/24 06:13:24;;;;;;;8.38;5.43;;;;;;;30.30;33.92;96993.34;4965113;28;20026;-31
2022/07/24 06:15:49;;;;;;;6.07;5.47;;;;;;;30.31;33.67;96984.44;4956567;28;20566;-29
2022/07/24 06:18:14;;;;;;;8.05;5.25;;;;;;;30.34;33.71;96989.53;4960597;28;20033;-30
2022/07/24 06:20:40;;;;;;;6.57;5.03;;;;;;;30.34;33.70;96984.25;4955359;28;20100;-29
2022/07/24 06:23:05;;;;;;;6.75;5.20;;;;;;;30.33;34.04;96978.09;4965703;28;20030;-30
2022/07/24 06:25:31;;;;;;;7.00;5.10;;;;;;;30.36;33.63;96982.38;4957838;28;20435;-25
2022/07/24 06:27:57;;;;;;;6.88;4.85;;;;;;;30.36;33.93;96988.47;4963778;28;20752;-28
2022/07/24 06:30:27;;;;;;;7.47;5.60;;;;;;;30.37;33.92;96989.34;4949442;28;20029;-30
2022/07/24 06:32:53;;;;;;;7.85;4.90;;;;;;;30.38;33.98;96991.88;4960627;28;20034;-31
2022/07/24 06:35:19;;;;;;;7.97;4.95;;;;;;;30.40;34.05;96990.91;4958529;28;22936;-32
2022/07/24 06:37:44;;;;;;;8.45;5.10;;;;;;;30.40;33.65;96986.47;4956899;28;20758;-31
2022/07/24 06:40:10;;;;;;;8.00;5.13;;;;;;;30.42;33.60;96981.06;4949197;28;20046;-30
2022/07/24 06:42:36;;;;;;;9.68;5.40;;;;;;;30.43;33.99;96988.91;4954719;28;20040;-34
2022/07/24 06:45:02;;;;;;;7.03;5.75;;;;;;;30.42;33.95;96981.94;4948635;28;21139;-30
2022/07/24 06:47:27;;;;;;;8.77;5.78;;;;;;;30.44;33.54;96982.66;4949266;28;20159;-27
2022/07/24 06:49:53;;;;;;;6.25;5.65;;;;;;;30.43;33.61;96982.78;4956985;28;20043;-26
2022/07/24 06:52:18;;;;;;;7.93;5.60;;;;;;;30.41;33.68;96980.25;4949246;28;20376;-28
2022/07/24 06:54:44;;;;;;;11.02;5.95;;;;;;;30.39;33.89;96974.19;4959761;28;21304;-33
2022/07/24 06:57:09;;;;;;;7.95;5.22;;;;;;;30.39;33.84;96976.84;4962467;28;20030;-31
2022/07/24 06:59:35;;;;;;;10.50;5.88;;;;;;;30.39;33.84;96982.13;4952906;28;20057;-30
2022/07/24 07:02:00;;;;;;;10.02;5.65;;;;;;;30.37;33.83;96976.94;4955602;28;21004;-30
2022/07/24 07:04:25;;;;;;;10.50;5.90;;;;;;;30.38;33.56;96981.31;4956164;28;20038;-27
2022/07/24 07:06:51;;;;;;;8.57;5.55;;;;;;;30.38;33.41;96969.88;4944807;28;20050;-33
2022/07/24 07:09:16;;;;;;;6.65;5.50;;;;;;;30.41;33.65;96979.38;4948826;28;20084;-30
2022/07/24 07:11:42;;;;;;;6.15;4.85;;;;;;;30.39;33.22;96976.84;4953016;28;20075;-32
2022/07/24 07:14:07;;;;;;;7.85;5.45;;;;;;;30.38;33.11;96985.72;4959591;28;20878;-34
2022/07/24 07:16:32;;;;;;;7.15;5.72;;;;;;;30.40;33.38;96981.16;4958714;28;20037;-33
2022/07/24 07:18:58;;;;;;;6.93;5.45;;;;;;;30.36;33.07;96975.25;4960355;28;20594;-33
2022/07/24 07:21:23;;;;;;;7.88;5.60;;;;;;;30.36;33.24;96972.63;4962528;28;20040;-28
2022/07/24 07:23:49;;;;;;;6.45;5.40;;;;;;;30.37;33.11;96973.47;4958273;28;20033;-32
2022/07/24 07:26:14;;;;;;;8.65;5.40;;;;;;;30.36;32.94;96974.44;4961699;28;20022;-34
2022/07/24 07:28:39;;;;;;;5.82;4.88;;;;;;;30.37;32.72;96981.41;4952405;28;22138;-30
2022/07/24 07:31:05;;;;;;;6.45;5.25;;;;;;;30.37;32.65;96981.41;4952183;28;20127;-26
2022/07/24 07:33:30;;;;;;;6.28;5.22;;;;;;;30.36;32.33;96982.38;4960606;28;20057;-28
2022/07/24 07:35:55;;;;;;;7.68;5.30;;;;;;;30.37;32.24;96984.03;4945022;28;20034;-30
2022/07/24 07:38:21;;;;;;;6.72;4.80;;;;;;;30.38;32.48;96983.94;4962282;28;20029;-30
2022/07/24 07:40:46;;;;;;;7.80;5.05;;;;;;;30.37;32.15;96982.22;4957572;28;20030;-34
2022/07/24 07:43:12;;;;;;;7.85;5.05;;;;;;;30.35;32.08;96980.66;4956102;28;21820;-32
2022/07/24 07:45:37;;;;;;;7.57;5.28;;;;;;;30.38;31.99;96976.00;4951570;28;20030;-26
2022/07/24 07:48:03;;;;;;;7.03;5.28;;;;;;;30.40;32.28;96981.16;4955913;28;20020;-31
2022/07/24 07:50:28;;;;;;;8.35;5.47;;;;;;;30.40;32.03;96980.34;4951467;28;20026;-36
2022/07/24 07:52:54;;;;;;;7.95;5.00;;;;;;;30.41;32.18;96980.25;4959963;28;20052;-29
2022/07/24 07:55:19;;;;;;;7.03;5.18;;;;;;;30.40;32.08;96981.16;4960843;28;20510;-30
2022/07/24 07:57:45;;;;;;;6.88;5.47;;;;;;;30.39;31.91;96982.13;4952543;28;20034;-28
2022/07/24 08:00:11;;;;;;;8.20;4.95;;;;;;;30.37;31.66;96974.31;4956976;28;20135;-30
2022/07/24 08:02:36;;;;;;;6.13;5.07;;;;;;;30.38;31.61;96978.66;4954567;28;20837;-31
2022/07/24 08:05:02;;;;;;;7.47;5.35;;;;;;;30.38;31.97;96980.44;4948951;28;20112;-29
2022/07/24 08:07:27;;;;;;;8.15;4.95;;;;;;;30.37;31.74;96974.31;4950886;28;20511;-31
2022/07/24 08:09:53;;;;;;;8.32;4.75;;;;;;;30.38;31.57;96981.31;4960135;28;20030;-31
2022/07/24 08:12:18;;;;;;;6.80;5.03;;;;;;;30.40;31.66;96977.69;4959075;28;20084;-31
2022/07/24 08:14:43;;;;;;;7.82;4.65;;;;;;;30.40;31.61;96977.69;4958563;28;20029;-28
2022/07/24 08:17:09;;;;;;;7.47;5.03;;;;;;;30.41;31.81;96976.75;4962205;28;20037;-28
2022/07/24 08:19:34;;;;;;;9.25;5.25;;;;;;;30.41;31.57;96974.94;4966816;28;20040;-32
2022/07/24 08:22:00;;;;;;;5.88;4.80;;;;;;;30.43;31.73;96972.22;4958641;28;20096;-37
2022/07/24 08:24:26;;;;;;;6.45;4.63;;;;;;;30.44;31.38;96972.06;4967838;28;20026;-28
2022/07/24 08:26:51;;;;;;;5.90;4.63;;;;;;;30.45;31.41;96973.78;4963914;28;20060;-31
2022/07/24 08:29:17;;;;;;;6.30;4.80;;;;;;;30.46;31.22;96969.31;4964473;28;20033;-31
2022/07/24 08:31:42;;;;;;;7.30;4.50;;;;;;;30.47;31.49;96966.59;4963690;28;21110;-30
2022/07/24 08:34:08;;;;;;;6.60;4.55;;;;;;;30.49;31.36;96959.41;4958989;28;20343;-30
2022/07/24 08:36:33;;;;;;;6.43;5.05;;;;;;;30.50;31.23;96961.09;4951484;28;20103;-30
2022/07/24 08:38:59;;;;;;;7.57;4.95;;;;;;;30.52;31.23;96960.97;4955754;28;20900;-30
2022/07/24 08:41:24;;;;;;;6.25;4.70;;;;;;;30.53;31.36;96962.66;4954247;28;20030;-28
2022/07/24 08:43:49;;;;;;;7.07;4.97;;;;;;;30.55;31.52;96960.75;4959297;28;20278;-28
2022/07/24 08:46:16;;;;;;;11.25;4.93;;;;;;;30.56;31.42;96951.03;4948039;28;20034;-34
2022/07/24 08:48:44;;;;;;;8.48;5.15;;;;;;;30.57;31.57;96963.28;4959083;28;20884;-29
2022/07/24 08:51:12;;;;;;;9.13;5.28;;;;;;;30.58;31.46;96954.38;4964733;28;20071;-29
2022/07/24 08:53:37;;;;;;;6.60;4.82;;;;;;;30.56;31.16;96951.03;4938689;28;20811;-33
2022/07/24 08:56:03;;;;;;;7.90;4.93;;;;;;;30.61;31.58;96954.19;4953598;28;20034;-28
2022/07/24 08:58:28;;;;;;;7.13;4.88;;;;;;;30.61;31.73;96948.91;4950812;28;20136;-29
2022/07/24 09:00:54;;;;;;;8.48;5.43;;;;;;;30.61;31.89;96952.41;4944357;28;20034;-31
2022/07/24 09:03:19;;;;;;;9.13;5.72;;;;;;;30.62;31.49;96948.78;4953158;28;20517;-29
2022/07/24 09:05:58;;;;;;;11.82;5.55;;;;;;;30.64;31.58;96951.34;4959836;28;20977;-33
2022/07/24 09:08:23;;;;;;;12.15;5.82;;;;;;;30.67;31.70;96956.41;4949817;28;20096;-29
2022/07/24 09:10:55;;;;;;;16.33;6.40;;;;;;;30.68;31.65;96951.94;4950048;28;20401;-29
2022/07/24 09:13:22;;;;;;;23.85;6.85;;;;;;;30.70;31.47;96953.53;4952421;28;20324;-33
2022/07/24 09:15:48;;;;;;;22.75;6.15;;;;;;;30.70;31.89;96947.41;4938163;28;20113;-29
2022/07/24 09:18:31;;;;;;;41.15;6.15;;;;;;;30.73;31.55;96952.50;4963078;28;20113;-26
2022/07/24 09:20:57;;;;;;;29.25;6.60;;;;;;;30.74;31.81;96952.38;4959317;28;20233;-31
2022/07/24 09:23:22;;;;;;;26.80;6.47;;;;;;;30.75;31.64;96956.72;4967455;28;20037;-34
2022/07/24 09:25:52;;;;;;;17.40;6.93;;;;;;;30.76;31.92;96950.50;4964562;28;21742;-28
2022/07/24 09:28:19;;;;;;;13.05;6.30;;;;;;;30.77;31.68;96949.53;4975013;28;20021;-31
2022/07/24 09:30:45;;;;;;;18.38;7.18;;;;;;;30.77;31.60;96949.53;4968784;28;20038;-28
2022/07/24 09:33:11;;;;;;;15.43;6.40;;;;;;;30.80;31.98;96952.91;4981079;28;20077;-27
2022/07/24 09:35:37;;;;;;;13.48;6.35;;;;;;;30.80;31.83;96951.13;4967083;28;20029;-33
2022/07/24 09:38:03;;;;;;;13.82;6.22;;;;;;;30.75;31.83;96940.03;4960187;28;20508;-29
2022/07/24 09:40:31;;;;;;;15.65;6.28;;;;;;;30.81;32.02;96954.63;4968749;28;20072;-26
2022/07/24 09:43:12;;;;;;;14.70;6.47;;;;;;;30.81;31.92;96954.63;4954624;28;20995;-30
2022/07/24 09:45:56;;;;;;;13.75;6.20;;;;;;;30.82;31.85;96946.53;4960090;28;20107;-31
2022/07/24 09:48:23;;;;;;;11.93;6.00;;;;;;;30.82;31.98;96946.53;4964845;28;20360;-28
2022/07/24 09:50:49;;;;;;;14.32;6.22;;;;;;;30.83;31.88;96942.09;4961980;28;20060;-31
2022/07/24 09:53:17;;;;;;;14.10;6.22;;;;;;;30.84;32.19;96949.09;4965288;28;20049;-29
2022/07/24 09:55:42;;;;;;;11.35;6.07;;;;;;;30.78;32.04;96929.19;4961765;28;20119;-28
2022/07/24 09:58:19;;;;;;;17.45;6.15;;;;;;;30.85;32.28;96934.88;4942948;28;20026;-27
2022/07/24 10:00:44;;;;;;;15.38;5.70;;;;;;;30.85;32.16;96941.03;4962844;28;20041;-28
2022/07/24 10:03:11;;;;;;;12.60;5.57;;;;;;;30.87;32.29;96938.28;4943556;28;20475;-30
2022/07/24 10:05:37;;;;;;;10.45;5.55;;;;;;;30.86;32.23;96937.44;4958151;28;20064;-29
2022/07/24 10:08:06;;;;;;;14.75;5.47;;;;;;;30.87;32.08;96943.56;4943753;28;21614;-32
2022/07/24 10:10:31;;;;;;;10.55;5.82;;;;;;;30.86;32.42;96942.72;4964338;28;20041;-29
2022/07/24 10:12:56;;;;;;;11.25;5.53;;;;;;;30.87;32.25;96936.50;4958148;28;20022;-32
2022/07/24 10:15:22;;;;;;;9.60;5.38;;;;;;;30.89;32.21;96939.00;4939397;28;20033;-30
2022/07/24 10:18:03;;;;;;;11.38;5.47;;;;;;;30.89;32.25;96936.34;4961836;28;20056;-33
2022/07/24 10:20:43;;;;;;;8.57;5.22;;;;;;;30.89;32.55;96936.34;4962624;28;21012;-34
2022/07/24 10:23:08;;;;;;;8.40;5.32;;;;;;;30.89;32.27;96931.94;4960974;28;20117;-29
2022/07/24 10:25:48;;;;;;;8.30;5.20;;;;;;;30.91;32.42;96939.75;4956181;28;20029;-31
2022/07/24 10:28:14;;;;;;;11.27;5.10;;;;;;;30.92;32.40;96940.59;4963379;28;20026;-29
2022/07/24 10:30:39;;;;;;;9.35;5.50;;;;;;;30.93;32.35;96935.19;4956012;28;20088;-32
2022/07/24 10:33:05;;;;;;;6.55;4.75;;;;;;;30.92;32.25;96935.28;4961245;28;20030;-26
2022/07/24 10:35:31;;;;;;;8.35;4.95;;;;;;;30.93;32.19;96932.53;4957153;28;20700;-30
2022/07/24 10:38:18;;;;;;;7.03;4.70;;;;;;;30.94;32.30;96928.97;4945224;28;20066;-30
2022/07/24 10:40:51;;;;;;;11.05;4.65;;;;;;;30.95;32.63;96935.06;4958299;28;20060;-26
2022/07/24 10:43:18;;;;;;;8.02;5.00;;;;;;;30.94;32.28;96921.03;4958127;28;20617;-29
2022/07/24 10:45:55;;;;;;;7.93;4.57;;;;;;;30.95;32.53;96922.72;4959310;28;20052;-28
2022/07/24 10:48:21;;;;;;;8.05;4.55;;;;;;;30.95;32.48;96920.06;4962208;28;20114;-31
2022/07/24 10:51:07;;;;;;;7.63;4.75;;;;;;;30.95;32.14;96920.06;4961646;28;20564;-30
2022/07/24 10:53:38;;;;;;;9.07;4.32;;;;;;;30.96;32.39;96920.88;4963017;28;20652;-32
2022/07/24 10:56:16;;;;;;;7.18;4.80;;;;;;;30.96;32.38;96916.44;4968690;28;20544;-29
2022/07/24 10:58:54;;;;;;;8.68;5.28;;;;;;;30.97;32.37;96918.13;4963792;28;20042;-29
2022/07/24 11:01:45;;;;;;;8.10;4.82;;;;;;;30.97;32.69;96912.84;4963625;28;21286;-28
2022/07/24 11:04:20;;;;;;;7.82;4.72;;;;;;;30.96;32.39;96895.28;4957819;28;20044;-31
2022/07/24 11:07:07;;;;;;;10.48;5.05;;;;;;;30.98;32.52;96903.09;4961920;28;20708;-27
2022/07/24 11:09:55;;;;;;;9.93;4.75;;;;;;;30.98;32.56;96897.81;4959545;28;20111;-27
2022/07/24 11:12:31;;;;;;;8.00;4.28;;;;;;;30.98;32.69;96898.66;4958419;28;20049;-28
2022/07/24 11:17:48;;;;;;;7.28;4.40;;;;;;;30.99;32.47;96894.22;4960635;28;20165;-31
2022/07/24 11:20:15;;;;;;;7.15;4.15;;;;;;;30.98;32.63;96888.09;4962277;28;20271;-30
2022/07/24 11:22:47;;;;;;;8.15;4.53;;;;;;;31.00;32.40;96891.44;4969588;28;20116;-29
2022/07/24 11:25:31;;;;;;;7.97;4.20;;;;;;;31.00;32.37;96886.16;4967029;28;20049;-31
2022/07/24 11:27:58;;;;;;;9.80;4.15;;;;;;;31.01;32.68;96887.00;4970929;28;20026;-30
2022/07/24 11:30:28;;;;;;;6.95;3.97;;;;;;;31.01;32.46;96890.50;4964022;28;21536;-25
2022/07/24 11:32:54;;;;;;;6.28;4.18;;;;;;;31.01;32.40;96882.53;4954879;28;20041;-28